Deer Lake, Washington
Current Conditions -  °F | °C
As of 5:53 AM on Friday 24 Oct 2014 (Local Time) from KDEW Reporting Station
Overcast Overcast  
Wind Chill: 39°   Ceiling: 10000
Heat Index: 42°   Visibility: 10mi
Dew Point: 40°   Wind: 5mph
Humidity: 92%   Direction: 170°S
Pressure: 30.05"   Gusts: NA
Location:  48.1077°N, 117.582°W
Report Text: KDEW 241253Z AUTO 17004KT 10SM OVC100 06/04 A3005 RMK AO2 SLP183 T00560044
Loading
Personal Weather Stations






























Interactive Weather Map
Tropical Storm Tracking
New forecast layout! Learn more

10-Day Weather Forecast

Advertisements
Track Severe Weather on mobile